createdAt,value
2024-05-09T00:02:14.095Z,4.50
2024-05-09T00:04:48.036Z,5.13
2024-05-09T00:07:19.088Z,4.63
2024-05-09T00:09:50.389Z,4.00
2024-05-09T00:12:21.576Z,4.80
2024-05-09T00:14:52.613Z,4.90
2024-05-09T00:17:23.756Z,4.10
2024-05-09T00:19:57.676Z,3.40
2024-05-09T00:22:28.687Z,3.80
2024-05-09T00:24:59.619Z,4.50
2024-05-09T00:27:30.540Z,4.10
2024-05-09T00:30:01.377Z,3.77
2024-05-09T00:32:32.513Z,4.20
2024-05-09T00:35:06.277Z,4.23
2024-05-09T00:37:37.172Z,3.80
2024-05-09T00:40:18.207Z,4.37
2024-05-09T00:42:53.398Z,4.40
2024-05-09T00:45:24.422Z,4.23
2024-05-09T00:47:55.757Z,4.20
2024-05-09T00:50:35.842Z,6.57
2024-05-09T00:53:09.268Z,4.37
2024-05-09T00:55:42.497Z,4.47
2024-05-09T00:58:17.755Z,3.17
2024-05-09T01:00:49.438Z,4.00
2024-05-09T01:03:21.194Z,5.00
2024-05-09T01:05:55.558Z,3.90
2024-05-09T01:08:26.589Z,4.57
2024-05-09T01:10:57.733Z,4.30
2024-05-09T01:13:28.826Z,4.30
2024-05-09T01:15:59.976Z,4.70
2024-05-09T01:18:31.204Z,3.77
2024-05-09T01:21:08.280Z,3.50
2024-05-09T01:23:42.035Z,4.50
2024-05-09T01:26:13.060Z,4.53
2024-05-09T01:28:44.014Z,5.73
2024-05-09T01:31:16.114Z,5.50
2024-05-09T01:33:47.317Z,4.40
2024-05-09T01:36:18.317Z,3.60
2024-05-09T01:38:52.118Z,3.63
2024-05-09T01:41:23.104Z,3.90
2024-05-09T01:43:54.177Z,3.93
2024-05-09T01:46:25.371Z,4.40
2024-05-09T01:48:56.650Z,4.37
2024-05-09T01:51:27.759Z,4.60
2024-05-09T01:54:01.509Z,4.23
2024-05-09T01:56:32.681Z,5.33
2024-05-09T01:59:04.949Z,4.23
2024-05-09T02:01:55.634Z,3.70
2024-05-09T02:04:27.250Z,4.13
2024-05-09T02:06:58.371Z,3.80
2024-05-09T02:09:32.146Z,4.77
2024-05-09T02:12:03.219Z,4.27
2024-05-09T02:14:34.333Z,4.67
2024-05-09T02:17:05.399Z,4.00
2024-05-09T02:19:36.739Z,5.00
2024-05-09T02:22:08.219Z,4.10
2024-05-09T02:24:42.015Z,4.03
2024-05-09T02:27:12.972Z,4.10
2024-05-09T02:29:44.055Z,4.00
2024-05-09T02:32:15.256Z,4.27
2024-05-09T02:34:46.540Z,4.37
2024-05-09T02:37:17.790Z,4.50
2024-05-09T02:39:48.928Z,4.20
2024-05-09T02:42:20.167Z,3.93
2024-05-09T02:44:48.518Z,4.37
2024-05-09T02:47:19.911Z,4.10
2024-05-09T02:49:48.326Z,4.40
2024-05-09T02:52:22.471Z,4.77
2024-05-09T02:54:53.550Z,4.23
2024-05-09T02:57:24.429Z,4.13
2024-05-09T02:59:52.740Z,4.90
2024-05-09T03:02:23.767Z,4.50
2024-05-09T03:04:52.395Z,4.60
2024-05-09T03:07:23.627Z,5.73
2024-05-09T03:09:54.527Z,4.80
2024-05-09T03:12:25.569Z,4.00
2024-05-09T03:14:53.956Z,4.43
2024-05-09T03:17:25.358Z,4.30
2024-05-09T03:19:53.805Z,4.73
2024-05-09T03:22:24.782Z,4.23
2024-05-09T03:24:56.065Z,5.13
2024-05-09T03:27:27.162Z,4.17
2024-05-09T03:29:55.573Z,4.80
2024-05-09T03:32:26.894Z,4.70
2024-05-09T03:34:55.388Z,4.87
2024-05-09T03:37:26.407Z,4.47
2024-05-09T03:40:00.256Z,4.30
2024-05-09T03:42:31.421Z,4.60
2024-05-09T03:45:02.428Z,4.13
2024-05-09T03:47:32.538Z,4.63
2024-05-09T03:50:05.627Z,4.30
2024-05-09T03:52:34.249Z,4.50
2024-05-09T03:55:08.377Z,3.57
2024-05-09T03:57:36.699Z,3.97
2024-05-09T04:00:14.845Z,5.40
2024-05-09T04:05:38.376Z,4.30
2024-05-09T04:08:07.787Z,4.07
2024-05-09T04:10:41.502Z,3.80
2024-05-09T04:13:11.795Z,5.00
2024-05-09T04:15:42.939Z,4.90
2024-05-09T04:18:12.330Z,4.30
2024-05-09T04:20:43.647Z,4.30
2024-05-09T04:23:13.737Z,4.37
2024-05-09T04:25:48.454Z,5.00
2024-05-09T04:28:16.857Z,4.70
2024-05-09T04:30:47.830Z,4.20
2024-05-09T04:33:16.360Z,4.37
2024-05-09T04:35:49.466Z,4.60
2024-05-09T04:38:18.250Z,4.70
2024-05-09T04:40:51.868Z,4.70
2024-05-09T04:43:21.362Z,4.37
2024-05-09T04:45:52.284Z,5.20
2024-05-09T04:48:20.726Z,5.80
2024-05-09T04:50:51.764Z,5.20
2024-05-09T04:53:20.247Z,5.43
2024-05-09T04:55:54.329Z,6.63
2024-05-09T04:58:22.625Z,6.00
2024-05-09T05:00:53.582Z,5.20
2024-05-09T05:03:22.233Z,5.20
2024-05-09T05:05:53.418Z,5.27
2024-05-09T05:08:21.792Z,6.60
2024-05-09T05:10:55.576Z,6.23
2024-05-09T05:13:24.712Z,6.20
2024-05-09T05:15:58.308Z,6.50
2024-05-09T05:18:28.265Z,5.03
2024-05-09T05:21:00.139Z,5.63
2024-05-09T05:23:28.634Z,6.40
2024-05-09T05:26:02.288Z,6.20
2024-05-09T05:28:37.974Z,5.57
2024-05-09T05:31:09.174Z,5.67
2024-05-09T05:33:37.745Z,7.07
2024-05-09T05:36:11.003Z,5.60
2024-05-09T05:38:41.983Z,6.20
2024-05-09T05:41:13.083Z,6.00
2024-05-09T05:43:44.150Z,6.00
2024-05-09T05:46:12.538Z,5.43
2024-05-09T05:48:43.491Z,6.23
2024-05-09T05:51:11.944Z,5.90
2024-05-09T05:53:43.043Z,5.47
2024-05-09T05:56:14.063Z,5.70
2024-05-09T05:58:45.117Z,5.50
2024-05-09T06:01:13.682Z,6.90
2024-05-09T06:03:44.849Z,5.60
2024-05-09T06:06:15.036Z,5.23
2024-05-09T06:08:46.058Z,6.00
2024-05-09T06:11:17.457Z,6.20
2024-05-09T06:13:48.680Z,5.67
2024-05-09T06:16:17.075Z,5.70
2024-05-09T06:18:48.156Z,6.20
2024-05-09T06:21:18.375Z,6.53
2024-05-09T06:23:50.023Z,5.47
2024-05-09T06:26:21.153Z,6.10
2024-05-09T06:28:52.212Z,5.70
2024-05-09T06:31:20.555Z,5.83
2024-05-09T06:33:51.606Z,6.00
2024-05-09T06:36:20.256Z,6.80
2024-05-09T06:38:51.232Z,5.60
2024-05-09T06:41:22.195Z,6.30
2024-05-09T06:43:53.356Z,5.73
2024-05-09T06:46:21.716Z,6.37
2024-05-09T06:48:53.214Z,5.23
2024-05-09T06:51:21.969Z,6.00
2024-05-09T06:53:52.973Z,6.20
2024-05-09T06:56:23.932Z,6.03
2024-05-09T06:58:54.919Z,5.37
2024-05-09T07:01:23.345Z,5.47
2024-05-09T07:03:54.347Z,5.20
2024-05-09T07:06:22.740Z,5.07
2024-05-09T07:08:53.644Z,5.03
2024-05-09T07:11:24.768Z,4.93
2024-05-09T07:13:55.798Z,5.50
2024-05-09T07:16:24.107Z,6.27
2024-05-09T07:18:55.317Z,5.63
2024-05-09T07:21:23.909Z,4.70
2024-05-09T07:23:54.980Z,5.40
2024-05-09T07:26:25.906Z,5.17
2024-05-09T07:28:56.934Z,5.43
2024-05-09T07:31:28.143Z,5.87
2024-05-09T07:34:00.689Z,5.77
2024-05-09T07:36:29.052Z,4.90
2024-05-09T07:39:00.882Z,4.80
2024-05-09T07:41:31.870Z,4.57
2024-05-09T07:44:02.863Z,5.83
2024-05-09T07:47:37.096Z,4.87
2024-05-09T07:53:21.556Z,4.70
2024-05-09T07:54:44.547Z,4.87
2024-05-09T07:57:15.568Z,4.63
2024-05-09T07:59:46.548Z,4.13
2024-05-09T08:02:15.073Z,5.30
2024-05-09T08:04:46.125Z,5.13
2024-05-09T08:07:14.546Z,5.37
2024-05-09T08:09:45.580Z,7.23
2024-05-09T08:12:17.244Z,5.20
2024-05-09T08:14:48.111Z,7.00
2024-05-09T08:17:16.485Z,5.07
2024-05-09T08:19:47.930Z,5.40
2024-05-09T08:22:16.566Z,4.60
2024-05-09T08:24:47.770Z,5.70
2024-05-09T08:27:19.385Z,4.90
2024-05-09T08:29:50.325Z,6.00
2024-05-09T08:32:18.663Z,5.80
2024-05-09T08:34:49.654Z,4.13
2024-05-09T08:37:22.400Z,4.07
2024-05-09T08:39:55.800Z,4.10
2024-05-09T08:42:29.567Z,3.70
2024-05-09T08:45:00.741Z,3.90
2024-05-09T08:47:32.216Z,3.97
2024-05-09T08:50:08.580Z,4.90
2024-05-09T08:52:37.288Z,5.30
2024-05-09T08:55:08.891Z,4.70
2024-05-09T08:57:41.388Z,5.03
2024-05-09T09:00:18.010Z,6.23
2024-05-09T09:02:51.410Z,5.10
2024-05-09T09:05:24.833Z,6.17
2024-05-09T09:07:53.280Z,4.97
2024-05-09T09:10:31.877Z,4.57
2024-05-09T09:13:07.289Z,4.43
2024-05-09T09:15:49.113Z,5.07
2024-05-09T09:18:18.457Z,3.80
2024-05-09T09:20:50.293Z,5.07
2024-05-09T09:23:18.671Z,6.23
2024-05-09T09:25:49.587Z,4.57
2024-05-09T09:28:24.170Z,3.90
2024-05-09T09:30:55.162Z,3.30
2024-05-09T09:33:23.469Z,2.90
2024-05-09T09:35:54.378Z,3.37
2024-05-09T09:38:24.657Z,2.80
2024-05-09T09:40:55.646Z,2.63
2024-05-09T09:43:28.292Z,3.50
2024-05-09T09:46:00.608Z,3.40
2024-05-09T09:48:30.599Z,3.50
2024-05-09T09:51:02.695Z,3.77
2024-05-09T09:53:32.308Z,3.33
2024-05-09T09:56:03.805Z,3.10
2024-05-09T09:58:36.843Z,3.93
2024-05-09T10:01:08.181Z,5.37
2024-05-09T10:03:36.862Z,3.40
2024-05-09T10:06:10.164Z,5.30
2024-05-09T10:08:39.288Z,2.80
2024-05-09T10:11:10.567Z,3.67
2024-05-09T10:13:42.654Z,3.40
2024-05-09T10:16:14.816Z,4.17
2024-05-09T10:18:43.529Z,3.13
2024-05-09T10:21:21.338Z,3.10
2024-05-09T10:24:00.817Z,3.43
2024-05-09T10:26:35.785Z,3.33
2024-05-09T10:29:16.039Z,5.07
2024-05-09T10:31:48.123Z,5.10
2024-05-09T10:34:20.930Z,3.10
2024-05-09T10:36:56.547Z,3.00
2024-05-09T10:39:26.380Z,3.63
2024-05-09T10:41:57.312Z,3.73
2024-05-09T10:44:28.258Z,3.83
2024-05-09T10:46:59.330Z,3.20
2024-05-09T10:49:27.975Z,3.00
2024-05-09T10:51:59.070Z,3.50
2024-05-09T10:54:36.760Z,3.10
2024-05-09T10:57:08.229Z,3.40
2024-05-09T10:59:39.856Z,3.07
2024-05-09T11:02:11.622Z,3.10
2024-05-09T11:04:40.816Z,3.20
2024-05-09T11:07:13.981Z,2.60
2024-05-09T11:09:43.314Z,3.10
2024-05-09T11:12:14.460Z,4.50
2024-05-09T11:14:54.124Z,3.63
2024-05-09T11:17:25.143Z,2.90
2024-05-09T11:19:53.700Z,3.13
2024-05-09T11:22:25.271Z,2.60
2024-05-09T11:24:54.871Z,3.47
2024-05-09T11:27:26.706Z,3.67
2024-05-09T11:29:58.703Z,3.37
2024-05-09T11:32:33.518Z,2.93
2024-05-09T11:35:02.524Z,5.53
2024-05-09T11:37:36.789Z,3.73
2024-05-09T11:40:11.463Z,3.53
2024-05-09T11:42:47.705Z,5.00
2024-05-09T11:45:19.690Z,3.60
2024-05-09T11:47:50.921Z,3.20
2024-05-09T11:50:27.006Z,3.77
2024-05-09T11:53:01.264Z,3.60
2024-05-09T11:55:29.634Z,3.13
2024-05-09T11:58:00.778Z,3.20
2024-05-09T12:00:36.804Z,3.77
2024-05-09T12:03:09.216Z,7.87
2024-05-09T12:05:37.628Z,4.33
2024-05-09T12:08:09.302Z,3.60
2024-05-09T12:10:37.887Z,2.60
2024-05-09T12:13:09.202Z,3.03
2024-05-09T12:15:40.247Z,3.00
2024-05-09T12:18:11.346Z,4.23
2024-05-09T12:20:40.329Z,3.23
2024-05-09T12:23:11.702Z,3.10
2024-05-09T12:25:40.522Z,3.97
2024-05-09T12:28:11.741Z,3.53
2024-05-09T12:30:42.930Z,3.10
2024-05-09T12:33:14.503Z,3.37
2024-05-09T12:35:46.417Z,3.70
2024-05-09T12:38:18.547Z,2.60
2024-05-09T12:40:47.094Z,3.53
2024-05-09T12:43:18.199Z,3.70
2024-05-09T12:45:50.358Z,3.07
2024-05-09T12:48:21.427Z,3.10
2024-05-09T12:50:49.816Z,2.90
2024-05-09T12:53:20.782Z,3.67
2024-05-09T12:55:56.565Z,3.40
2024-05-09T12:58:31.259Z,3.00
2024-05-09T13:01:02.288Z,3.67
2024-05-09T13:03:33.627Z,3.47
2024-05-09T13:06:02.096Z,3.63
2024-05-09T13:08:33.472Z,3.30
2024-05-09T13:11:02.023Z,3.70
2024-05-09T13:13:32.943Z,3.13
2024-05-09T13:16:04.233Z,3.30
2024-05-09T13:18:36.465Z,2.53
2024-05-09T13:21:05.070Z,3.07
2024-05-09T13:23:37.880Z,3.73
2024-05-09T13:26:06.437Z,2.47
2024-05-09T13:28:37.491Z,2.73
2024-05-09T13:31:08.510Z,2.80
2024-05-09T13:33:39.625Z,3.17
2024-05-09T13:36:08.717Z,3.10
2024-05-09T13:38:39.663Z,2.70
2024-05-09T13:41:08.577Z,2.43
2024-05-09T13:43:39.490Z,3.13
2024-05-09T13:46:10.640Z,3.00
2024-05-09T13:48:42.202Z,2.77
2024-05-09T13:51:10.747Z,3.30
2024-05-09T13:53:41.760Z,3.00
2024-05-09T13:56:10.189Z,2.67
2024-05-09T13:58:42.165Z,3.00
2024-05-09T14:01:13.141Z,3.47
2024-05-09T14:03:44.354Z,2.93
2024-05-09T14:06:13.328Z,3.37
2024-05-09T14:08:44.549Z,2.70
2024-05-09T14:11:12.883Z,2.90
2024-05-09T14:13:43.923Z,3.10
2024-05-09T14:16:15.224Z,2.83
2024-05-09T14:18:46.323Z,2.37
2024-05-09T14:21:14.702Z,2.83
2024-05-09T14:23:45.694Z,2.70
2024-05-09T14:26:14.256Z,2.90
2024-05-09T14:28:45.189Z,2.40
2024-05-09T14:31:16.276Z,2.77
2024-05-09T14:33:47.446Z,3.43
2024-05-09T14:36:15.870Z,3.50
2024-05-09T14:38:46.762Z,3.00
2024-05-09T14:41:15.118Z,3.03
2024-05-09T14:43:46.069Z,2.90
2024-05-09T14:46:17.279Z,2.20
2024-05-09T14:48:48.535Z,3.10
2024-05-09T14:51:17.509Z,2.80
2024-05-09T14:53:48.504Z,2.57
2024-05-09T14:56:16.893Z,2.27
2024-05-09T14:58:47.882Z,3.10
2024-05-09T15:01:20.604Z,2.83
2024-05-09T15:03:51.894Z,2.40
2024-05-09T15:06:20.361Z,2.37
2024-05-09T15:08:59.520Z,2.40
2024-05-09T15:11:27.822Z,3.30
2024-05-09T15:13:58.782Z,2.63
2024-05-09T15:16:30.145Z,3.33
2024-05-09T15:19:01.562Z,3.60
2024-05-09T15:21:29.944Z,3.57
2024-05-09T15:24:00.922Z,3.20
2024-05-09T15:26:29.279Z,2.37
2024-05-09T15:29:00.205Z,3.20
2024-05-09T15:31:31.427Z,3.47
2024-05-09T15:34:02.545Z,3.43
2024-05-09T15:36:31.071Z,3.50
2024-05-09T15:39:01.990Z,3.80
2024-05-09T15:41:30.288Z,3.00
2024-05-09T15:44:01.168Z,2.93
2024-05-09T15:46:34.871Z,3.20
2024-05-09T15:49:03.581Z,2.67
2024-05-09T15:51:34.878Z,3.90
2024-05-09T15:54:03.195Z,6.00
2024-05-09T15:56:34.494Z,3.73
2024-05-09T15:59:02.931Z,2.80
2024-05-09T16:01:36.589Z,6.33
2024-05-09T16:04:05.151Z,3.00
2024-05-09T16:06:37.491Z,3.50
2024-05-09T16:09:06.508Z,6.43
2024-05-09T16:11:37.473Z,2.80
2024-05-09T16:14:05.834Z,3.27
2024-05-09T16:16:39.612Z,2.57
2024-05-09T16:19:09.778Z,2.87
2024-05-09T16:21:40.743Z,3.30
2024-05-09T16:24:09.058Z,8.10
2024-05-09T16:26:40.033Z,5.27
2024-05-09T16:29:08.892Z,2.73
2024-05-09T16:31:42.454Z,3.40
2024-05-09T16:34:10.780Z,3.90
2024-05-09T16:36:43.870Z,2.87
2024-05-09T16:39:12.319Z,3.57
2024-05-09T16:41:43.257Z,5.70
2024-05-09T16:44:11.541Z,5.23
2024-05-09T16:46:45.201Z,4.37
2024-05-09T16:49:13.564Z,2.80
2024-05-09T16:51:44.562Z,2.90
2024-05-09T16:54:12.888Z,3.00
2024-05-09T16:56:43.822Z,3.57
2024-05-09T16:59:12.492Z,2.33
2024-05-09T17:01:46.065Z,2.83
2024-05-09T17:04:14.704Z,3.20
2024-05-09T17:06:46.036Z,3.07
2024-05-09T17:09:15.741Z,2.87
2024-05-09T17:11:49.267Z,2.90
2024-05-09T17:14:20.237Z,3.80
2024-05-09T17:16:54.251Z,4.50
2024-05-09T17:19:22.761Z,3.10
2024-05-09T17:21:53.796Z,2.90
2024-05-09T17:24:22.167Z,3.70
2024-05-09T17:26:53.351Z,3.77
2024-05-09T17:29:21.788Z,4.23
2024-05-09T17:31:55.342Z,4.20
2024-05-09T17:34:23.747Z,3.40
2024-05-09T17:36:54.924Z,3.60
2024-05-09T17:39:23.241Z,3.70
2024-05-09T17:41:54.115Z,4.60
2024-05-09T17:44:22.440Z,3.70
2024-05-09T17:46:56.066Z,4.03
2024-05-09T17:49:24.694Z,4.60
2024-05-09T17:51:56.014Z,4.90
2024-05-09T17:54:24.306Z,4.50
2024-05-09T17:56:55.319Z,4.67
2024-05-09T17:59:23.660Z,4.50
2024-05-09T18:01:57.311Z,3.83
2024-05-09T18:04:25.716Z,4.87
2024-05-09T18:06:56.849Z,4.60
2024-05-09T18:09:25.196Z,5.30
2024-05-09T18:11:56.120Z,4.70
2024-05-09T18:14:24.444Z,6.90
2024-05-09T18:16:58.121Z,5.30
2024-05-09T18:19:26.625Z,4.20
2024-05-09T18:21:57.920Z,7.40
2024-05-09T18:24:26.197Z,7.33
2024-05-09T18:26:57.162Z,8.37
2024-05-09T18:29:25.587Z,7.40
2024-05-09T18:31:59.228Z,6.43
2024-05-09T18:34:27.712Z,6.20
2024-05-09T18:37:00.903Z,6.60
2024-05-09T18:39:30.493Z,8.50
2024-05-09T18:42:02.025Z,6.30
2024-05-09T18:44:31.322Z,8.07
2024-05-09T18:47:05.094Z,5.90
2024-05-09T18:49:33.571Z,5.70
2024-05-09T18:52:04.646Z,6.07
2024-05-09T18:54:32.959Z,5.50
2024-05-09T18:57:03.885Z,6.20
2024-05-09T18:59:32.154Z,5.73
2024-05-09T19:02:05.955Z,6.40
2024-05-09T19:04:34.578Z,5.67
2024-05-09T19:07:06.489Z,6.13
2024-05-09T19:09:35.413Z,5.67
2024-05-09T19:12:06.615Z,5.60
2024-05-09T19:14:34.907Z,5.87
2024-05-09T19:17:09.397Z,5.77
2024-05-09T19:19:37.732Z,6.03
2024-05-09T19:22:10.434Z,5.90
2024-05-09T19:24:38.907Z,6.00
2024-05-09T19:27:09.869Z,5.60
2024-05-09T19:29:38.194Z,5.83
2024-05-09T19:32:11.816Z,5.50
2024-05-09T19:34:40.105Z,6.07
2024-05-09T19:37:11.196Z,5.83
2024-05-09T19:39:39.633Z,5.60
2024-05-09T19:42:10.564Z,5.50
2024-05-09T19:44:38.842Z,5.33
2024-05-09T19:47:12.550Z,5.60
2024-05-09T19:49:40.914Z,6.17
2024-05-09T19:52:12.012Z,5.80
2024-05-09T19:54:40.358Z,5.43
2024-05-09T19:57:11.451Z,6.10
2024-05-09T19:59:39.790Z,6.20
2024-05-09T20:02:13.492Z,5.93
2024-05-09T20:04:45.661Z,6.33
2024-05-09T20:07:16.867Z,6.37
2024-05-09T20:09:45.238Z,8.40
2024-05-09T20:12:16.310Z,7.23
2024-05-09T20:14:44.577Z,9.03
2024-05-09T20:17:18.143Z,8.60
2024-05-09T20:19:46.552Z,8.73
2024-05-09T20:22:17.623Z,9.10
2024-05-09T20:24:46.016Z,9.50
2024-05-09T20:27:16.899Z,11.23
2024-05-09T20:29:45.233Z,11.70
2024-05-09T20:32:18.842Z,11.00
2024-05-09T20:34:50.461Z,10.40
2024-05-09T20:37:21.975Z,10.23
2024-05-09T20:39:50.474Z,11.13
2024-05-09T20:42:21.428Z,9.43
2024-05-09T20:44:49.824Z,10.40
2024-05-09T20:47:23.449Z,11.60
2024-05-09T20:49:51.842Z,10.63
2024-05-09T20:52:22.842Z,8.77
2024-05-09T20:54:51.196Z,8.57
2024-05-09T20:57:22.130Z,7.70
2024-05-09T20:59:50.406Z,9.10
2024-05-09T21:02:24.154Z,9.80
2024-05-09T21:04:52.695Z,10.67
2024-05-09T21:07:23.668Z,9.30
2024-05-09T21:09:52.102Z,8.27
2024-05-09T21:12:23.068Z,9.03
2024-05-09T21:14:51.522Z,10.20
2024-05-09T21:17:25.289Z,9.50
2024-05-09T21:19:53.999Z,10.17
2024-05-09T21:22:25.042Z,8.50
2024-05-09T21:24:53.399Z,9.00
2024-05-09T21:27:24.578Z,8.80
2024-05-09T21:29:53.038Z,7.93
2024-05-09T21:32:26.679Z,9.13
2024-05-09T21:34:55.063Z,10.10
2024-05-09T21:37:26.094Z,8.93
2024-05-09T21:39:54.436Z,8.90
2024-05-09T21:42:25.418Z,8.50
2024-05-09T21:44:53.691Z,9.57
2024-05-09T21:47:27.420Z,9.33
2024-05-09T21:49:55.887Z,9.93
2024-05-09T21:52:27.341Z,9.07
2024-05-09T21:54:55.737Z,9.30
2024-05-09T21:57:26.686Z,8.40
2024-05-09T21:59:54.943Z,8.93
2024-05-09T22:02:28.782Z,8.70
2024-05-09T22:04:57.434Z,8.03
2024-05-09T22:07:28.402Z,8.10
2024-05-09T22:09:56.759Z,7.90
2024-05-09T22:12:27.730Z,7.90
2024-05-09T22:14:56.071Z,7.93
2024-05-09T22:17:29.707Z,8.60
2024-05-09T22:20:00.763Z,9.13
2024-05-09T22:22:31.670Z,9.50
2024-05-09T22:25:00.327Z,9.70
2024-05-09T22:27:31.379Z,9.60
2024-05-09T22:29:59.668Z,8.53
2024-05-09T22:32:33.304Z,8.27
2024-05-09T22:35:01.699Z,9.37
2024-05-09T22:37:32.718Z,9.30
2024-05-09T22:40:03.137Z,9.07
2024-05-09T22:42:35.006Z,8.57
2024-05-09T22:45:03.301Z,8.13
2024-05-09T22:47:37.226Z,9.50
2024-05-09T22:50:08.956Z,9.57
2024-05-09T22:52:43.642Z,9.70
2024-05-09T22:55:12.099Z,9.00
2024-05-09T22:57:43.066Z,9.60
2024-05-09T23:00:15.748Z,9.47
2024-05-09T23:02:49.723Z,10.23
2024-05-09T23:05:20.815Z,9.90
2024-05-09T23:07:49.192Z,8.37
2024-05-09T23:10:27.729Z,7.50
2024-05-09T23:13:00.878Z,7.90
2024-05-09T23:15:32.047Z,7.80
2024-05-09T23:18:03.500Z,8.00
2024-05-09T23:20:38.487Z,8.70
2024-05-09T23:23:08.771Z,9.63
2024-05-09T23:25:41.118Z,8.10
2024-05-09T23:28:09.716Z,8.57
2024-05-09T23:30:41.821Z,8.90
2024-05-09T23:33:14.430Z,8.47
2024-05-09T23:35:46.281Z,9.03
2024-05-09T23:38:14.605Z,7.53
2024-05-09T23:40:45.611Z,7.63
2024-05-09T23:43:14.225Z,7.50
2024-05-09T23:45:45.568Z,8.50
2024-05-09T23:48:16.718Z,7.07
2024-05-09T23:50:47.692Z,7.50
2024-05-09T23:53:16.031Z,7.87
2024-05-09T23:55:46.959Z,9.10
2024-05-09T23:58:15.325Z,7.03
